Time;durP1;ratioP1;P1;durP2;ratioP2;P2;SDS_P1;SDS_P2;PMS_P1;PMS_P2;Temp;Humidity;BMP_temperature;BMP_pressure;BME280_temperature;BME280_humidity;BME280_pressure;Samples;Min_cycle;Max_cycle;Signal;HPM_P1;HPM_P2
2023/03/15 00:00:09;;;;;;;13.63;6.82;;;;;;;4.73;90.51;98630.06;5035267;28;20029;-72
2023/03/15 00:02:35;;;;;;;11.35;6.68;;;;;;;4.73;90.44;98630.91;5035281;28;20025;-72
2023/03/15 00:05:01;;;;;;;12.68;6.35;;;;;;;4.63;90.38;98623.56;5035143;28;20029;-72
2023/03/15 00:07:27;;;;;;;8.18;6.20;;;;;;;4.78;90.61;98656.50;5034795;28;20362;-72
2023/03/15 00:09:53;;;;;;;9.85;5.90;;;;;;;4.71;90.70;98670.53;5034973;28;20029;-73
2023/03/15 00:12:18;;;;;;;12.95;5.70;;;;;;;4.64;90.86;98669.94;5034934;28;20025;-72
2023/03/15 00:14:44;;;;;;;14.13;6.80;;;;;;;4.44;90.92;98649.22;5035047;28;20022;-72
2023/03/15 00:17:10;;;;;;;15.38;6.68;;;;;;;4.57;91.09;98657.34;5034505;28;20041;-72
2023/03/15 00:19:36;;;;;;;20.83;7.32;;;;;;;4.44;90.83;98654.38;5034873;28;20032;-72
2023/03/15 00:22:01;;;;;;;11.57;6.03;;;;;;;4.52;90.62;98673.00;5035062;28;20108;-72
2023/03/15 00:24:26;;;;;;;19.00;7.20;;;;;;;4.47;90.66;98673.16;5034422;28;20465;-72
2023/03/15 00:26:52;;;;;;;11.82;5.13;;;;;;;4.45;91.27;98680.09;5034699;28;20079;-73
2023/03/15 00:29:17;;;;;;;10.90;5.13;;;;;;;4.52;90.97;98683.31;5034973;28;20029;-73
2023/03/15 00:31:42;;;;;;;10.40;5.38;;;;;;;4.47;91.18;98698.94;5034704;28;20366;-72
2023/03/15 00:34:08;;;;;;;12.27;5.45;;;;;;;4.47;90.46;98698.94;5034420;28;20097;-72
2023/03/15 00:36:33;;;;;;;7.82;5.22;;;;;;;4.40;90.37;98705.22;5034558;28;20184;-72
2023/03/15 00:38:59;;;;;;;9.40;4.40;;;;;;;4.47;90.60;98722.16;5034097;28;20021;-72
2023/03/15 00:41:24;;;;;;;9.65;5.00;;;;;;;4.45;90.42;98716.19;5034381;28;20473;-72
2023/03/15 00:43:51;;;;;;;10.32;5.00;;;;;;;4.35;89.96;98714.88;5034569;28;20075;-72
2023/03/15 00:46:17;;;;;;;10.95;4.95;;;;;;;4.46;89.97;98722.19;5034287;28;20032;-72
2023/03/15 00:48:46;;;;;;;8.57;4.20;;;;;;;4.35;90.19;98734.66;5034481;28;20105;-72
2023/03/15 00:51:15;;;;;;;13.20;4.95;;;;;;;4.32;90.69;98742.47;5034146;28;20072;-72
2023/03/15 00:53:43;;;;;;;8.73;4.30;;;;;;;4.29;90.79;98727.13;5034237;28;20021;-72
2023/03/15 00:56:11;;;;;;;14.68;5.45;;;;;;;4.23;90.09;98717.88;5034116;28;20033;-72
2023/03/15 00:58:37;;;;;;;12.05;4.57;;;;;;;4.25;90.53;98726.38;5034225;28;20065;-72
2023/03/15 01:01:22;;;;;;;10.70;5.03;;;;;;;4.17;90.91;98729.25;5032908;28;20433;-72
2023/03/15 01:03:49;;;;;;;13.50;4.07;;;;;;;4.23;90.74;98749.66;5034336;28;20127;-72
2023/03/15 01:06:27;;;;;;;15.45;4.35;;;;;;;4.14;90.54;98744.81;5033972;28;20382;-72
2023/03/15 01:08:54;;;;;;;9.90;4.65;;;;;;;4.13;90.86;98748.28;5034091;28;20057;-72
2023/03/15 01:11:23;;;;;;;13.55;4.25;;;;;;;3.98;90.65;98739.34;5033826;28;20030;-73
2023/03/15 01:13:54;;;;;;;10.23;4.38;;;;;;;4.17;90.73;98770.50;5033927;28;20057;-72
2023/03/15 01:16:20;;;;;;;8.63;3.78;;;;;;;4.14;90.64;98770.59;5033476;28;20042;-72
2023/03/15 01:18:45;;;;;;;11.30;4.50;;;;;;;4.14;89.91;98790.38;5034153;28;20021;-72
2023/03/15 01:21:13;;;;;;;14.65;4.93;;;;;;;3.97;90.24;98763.44;5033801;28;20029;-72
2023/03/15 01:23:39;;;;;;;12.32;4.28;;;;;;;4.04;90.37;98781.25;5033762;28;20512;-72
2023/03/15 01:26:06;;;;;;;10.55;4.65;;;;;;;4.09;90.42;98792.22;5033599;28;20029;-72
2023/03/15 01:28:32;;;;;;;13.93;3.83;;;;;;;4.08;90.56;98783.66;5033412;28;20132;-72
2023/03/15 01:30:57;;;;;;;12.45;4.38;;;;;;;4.04;90.28;98768.38;5033701;28;20120;-72
2023/03/15 01:33:23;;;;;;;12.85;4.07;;;;;;;4.03;89.69;98777.00;5033453;28;20049;-73
2023/03/15 01:35:58;;;;;;;9.40;3.60;;;;;;;3.95;89.51;98760.06;5033877;28;20436;-73
2023/03/15 01:38:23;;;;;;;10.38;3.22;;;;;;;4.09;89.23;98794.81;5033250;28;20021;-73
2023/03/15 01:40:48;;;;;;;11.10;4.40;;;;;;;4.10;89.51;98786.22;5033331;28;20056;-72
2023/03/15 01:43:28;;;;;;;9.27;4.05;;;;;;;4.03;89.09;98789.88;5033111;28;20310;-73
2023/03/15 01:45:56;;;;;;;10.50;4.10;;;;;;;3.99;89.07;98804.59;5033463;28;20033;-72
2023/03/15 01:48:38;;;;;;;13.05;3.80;;;;;;;3.79;89.81;98781.22;5033055;28;20025;-72
2023/03/15 01:51:38;;;;;;;11.80;3.30;;;;;;;3.85;89.99;98812.78;5032613;28;20041;-72
2023/03/15 01:54:31;;;;;;;13.40;3.58;;;;;;;3.62;89.43;98794.66;5010815;28;20073;-72
2023/03/15 01:57:01;;;;;;;8.90;3.25;;;;;;;3.65;89.49;98795.41;5010853;28;20034;-72
2023/03/15 01:59:35;;;;;;;10.25;4.63;;;;;;;3.67;89.19;98816.81;5010652;28;20573;-72
2023/03/15 02:02:01;;;;;;;11.88;3.55;;;;;;;3.73;89.01;98834.63;5010839;28;20036;-72
2023/03/15 02:04:40;;;;;;;10.60;3.35;;;;;;;3.55;89.23;98803.47;5010583;28;20109;-72
2023/03/15 02:07:07;;;;;;;12.98;3.17;;;;;;;3.70;89.23;98816.69;5010777;28;20053;-72
2023/03/15 02:10:05;;;;;;;11.30;3.70;;;;;;;3.71;88.85;98833.00;5010485;28;20312;-72
2023/03/15 02:12:34;;;;;;;11.50;3.58;;;;;;;3.62;88.24;98823.81;5010301;28;20040;-72
2023/03/15 02:15:03;;;;;;;10.35;3.10;;;;;;;3.71;88.26;98856.19;5010506;28;20044;-73
2023/03/15 02:17:43;;;;;;;9.20;3.28;;;;;;;3.53;88.59;98856.75;5010013;28;20038;-72
2023/03/15 02:20:27;;;;;;;13.75;3.85;;;;;;;3.61;89.02;98859.91;5010282;28;20117;-72
2023/03/15 02:22:55;;;;;;;9.90;2.78;;;;;;;3.53;88.77;98831.84;5010380;28;20532;-72
2023/03/15 02:25:55;;;;;;;8.05;2.78;;;;;;;3.62;88.50;98851.28;5010078;28;20030;-72
2023/03/15 02:28:20;;;;;;;14.32;2.80;;;;;;;3.63;89.08;98855.59;5010382;28;20022;-72
2023/03/15 02:30:47;;;;;;;14.02;4.18;;;;;;;3.66;89.39;98865.75;5024766;28;20056;-72
2023/03/15 02:33:37;;;;;;;9.15;3.22;;;;;;;3.56;88.98;98867.78;5032660;28;20029;-72
2023/03/15 02:36:10;;;;;;;11.55;3.20;;;;;;;3.34;89.26;98854.72;5032567;28;20025;-72
2023/03/15 02:38:36;;;;;;;8.65;3.15;;;;;;;3.37;89.42;98862.38;5031989;28;20025;-72
2023/03/15 02:41:01;;;;;;;10.45;3.85;;;;;;;3.25;89.66;98848.13;5032248;28;20044;-72
2023/03/15 02:43:30;;;;;;;12.60;3.50;;;;;;;3.14;89.63;98852.75;5032262;28;20021;-72
2023/03/15 02:45:56;;;;;;;9.20;2.80;;;;;;;3.14;89.77;98880.19;5032094;28;20029;-72
2023/03/15 02:48:21;;;;;;;12.10;3.63;;;;;;;3.21;90.02;98884.28;5031887;28;20022;-72
2023/03/15 02:50:46;;;;;;;9.07;3.50;;;;;;;3.24;90.27;98892.78;5032210;28;20124;-72
2023/03/15 02:53:12;;;;;;;14.27;4.03;;;;;;;3.18;89.81;98895.50;5032480;28;20625;-72
2023/03/15 02:55:38;;;;;;;12.05;4.10;;;;;;;3.17;89.79;98898.13;5031846;28;20056;-72
2023/03/15 02:58:04;;;;;;;10.73;3.70;;;;;;;3.24;89.74;98909.91;5032065;28;20033;-72
2023/03/15 03:00:29;;;;;;;9.02;3.15;;;;;;;3.04;89.64;98897.66;5031544;28;20037;-72
2023/03/15 03:02:55;;;;;;;12.80;2.90;;;;;;;3.07;89.65;98906.97;5032208;28;20087;-72
2023/03/15 03:05:20;;;;;;;9.75;2.45;;;;;;;3.11;89.70;98917.16;5031893;28;20026;-72
2023/03/15 03:07:46;;;;;;;11.68;2.95;;;;;;;3.21;89.25;98941.75;5032050;28;20025;-72
2023/03/15 03:10:14;;;;;;;13.90;3.13;;;;;;;3.07;89.73;98925.00;5031969;28;20116;-72
2023/03/15 03:12:40;;;;;;;13.95;3.08;;;;;;;3.12;89.27;98933.41;5031621;28;20025;-72
2023/03/15 03:15:06;;;;;;;15.02;3.15;;;;;;;3.12;89.55;98936.00;5031883;28;20032;-72
2023/03/15 03:17:36;;;;;;;11.48;3.13;;;;;;;2.98;89.22;98924.34;5032122;28;20121;-72
2023/03/15 03:20:06;;;;;;;9.32;3.47;;;;;;;2.98;89.18;98926.09;5031846;28;20360;-72
2023/03/15 03:22:32;;;;;;;11.38;2.50;;;;;;;2.97;89.40;98934.69;5031717;28;20026;-72
2023/03/15 03:24:58;;;;;;;10.75;2.75;;;;;;;2.94;89.24;98927.06;5031825;28;20033;-73
2023/03/15 03:27:23;;;;;;;9.73;2.88;;;;;;;2.98;89.41;98928.66;5031507;28;20025;-72
2023/03/15 03:29:49;;;;;;;12.82;2.60;;;;;;;3.06;88.82;98956.75;5031669;28;20370;-73
2023/03/15 03:32:14;;;;;;;11.75;3.47;;;;;;;3.06;88.88;98949.03;5031885;28;20147;-72
2023/03/15 03:34:39;;;;;;;8.90;2.85;;;;;;;2.87;88.99;98916.13;5031604;28;20026;-73
2023/03/15 03:37:05;;;;;;;14.57;3.28;;;;;;;3.08;88.93;98957.56;5031739;28;20025;-72
2023/03/15 03:39:30;;;;;;;12.73;3.15;;;;;;;2.91;89.08;98934.88;5031468;28;20033;-72
2023/03/15 03:41:56;;;;;;;10.07;2.83;;;;;;;2.93;89.12;98949.38;5031697;28;20263;-72
2023/03/15 03:44:21;;;;;;;14.98;3.40;;;;;;;2.84;89.33;98943.63;5031270;28;20465;-73
2023/03/15 03:46:46;;;;;;;8.35;2.80;;;;;;;2.81;89.69;98939.41;5031742;28;20548;-72
2023/03/15 03:49:13;;;;;;;9.13;2.95;;;;;;;2.99;89.09;98974.94;5031665;28;20037;-72
2023/03/15 03:51:40;;;;;;;9.27;2.85;;;;;;;2.88;88.96;98958.94;5031392;28;20072;-72
2023/03/15 03:54:05;;;;;;;12.57;2.47;;;;;;;2.78;88.90;98952.34;5031572;28;20086;-72
2023/03/15 03:56:30;;;;;;;12.48;3.08;;;;;;;2.64;88.92;98939.00;5031352;28;20021;-72
2023/03/15 03:58:56;;;;;;;10.07;2.75;;;;;;;2.75;88.96;98968.72;5031331;28;20413;-72
2023/03/15 04:01:21;;;;;;;9.60;3.00;;;;;;;2.89;88.79;98994.06;5031364;28;20372;-72
2023/03/15 04:03:47;;;;;;;12.32;2.33;;;;;;;2.91;88.97;99002.59;5031420;28;20298;-72
2023/03/15 04:06:13;;;;;;;12.93;3.05;;;;;;;2.84;88.81;98992.50;5031506;28;20100;-72
2023/03/15 04:08:39;;;;;;;14.13;3.20;;;;;;;2.85;89.19;99001.91;5031240;28;20496;-72
2023/03/15 04:11:05;;;;;;;13.73;3.20;;;;;;;2.84;89.16;99002.78;5031390;28;20055;-72
2023/03/15 04:13:30;;;;;;;12.85;3.17;;;;;;;2.59;89.30;98972.56;5032610;28;20108;-72
2023/03/15 04:15:56;;;;;;;10.30;2.53;;;;;;;2.80;89.35;99008.88;5035068;28;20053;-72
2023/03/15 04:18:22;;;;;;;10.63;3.00;;;;;;;2.65;89.32;98989.53;5034957;28;20075;-72
2023/03/15 04:20:47;;;;;;;7.18;2.53;;;;;;;2.48;89.13;98962.53;5035050;28;20112;-73
2023/03/15 04:23:13;;;;;;;10.23;3.20;;;;;;;2.72;89.06;99003.94;5034957;28;20022;-73
2023/03/15 04:25:39;;;;;;;13.82;3.78;;;;;;;2.84;88.76;99018.22;5034566;28;20535;-73
2023/03/15 04:28:09;;;;;;;16.35;3.33;;;;;;;2.72;88.71;98998.78;5034802;28;20061;-72
2023/03/15 04:30:35;;;;;;;12.07;3.38;;;;;;;2.62;88.72;98984.50;5034724;28;20120;-73
2023/03/15 04:33:02;;;;;;;12.10;3.13;;;;;;;2.77;88.69;99021.81;5034712;28;20073;-72
2023/03/15 04:35:34;;;;;;;12.90;3.88;;;;;;;2.72;88.59;99017.63;5034518;28;20041;-72
2023/03/15 04:38:00;;;;;;;8.70;2.60;;;;;;;2.66;88.61;99032.38;5034593;28;20025;-72
2023/03/15 04:40:26;;;;;;;9.93;3.63;;;;;;;2.61;88.95;99029.94;5034215;28;20033;-72
2023/03/15 04:42:55;;;;;;;16.85;2.58;;;;;;;2.60;88.77;99038.50;5034366;28;20029;-72
2023/03/15 04:45:24;;;;;;;10.52;2.60;;;;;;;2.52;88.99;99014.69;5034570;28;20476;-72
2023/03/15 04:47:51;;;;;;;11.63;3.08;;;;;;;2.56;89.12;99036.88;5034439;28;20031;-72
2023/03/15 04:50:17;;;;;;;9.93;3.10;;;;;;;2.45;89.47;99028.59;5034765;28;20104;-73
2023/03/15 04:52:42;;;;;;;15.27;3.60;;;;;;;2.54;89.40;99040.38;5034174;28;20243;-72
2023/03/15 04:55:08;;;;;;;14.25;3.30;;;;;;;2.54;89.47;99043.81;5034200;28;20188;-72
2023/03/15 04:57:33;;;;;;;16.33;3.45;;;;;;;2.45;89.20;99033.75;5034173;28;20037;-73
2023/03/15 04:59:59;;;;;;;11.27;3.40;;;;;;;2.52;89.30;99045.53;5033988;28;20116;-73
2023/03/15 05:02:24;;;;;;;8.82;2.95;;;;;;;2.56;88.98;99051.47;5034080;28;20033;-72
2023/03/15 05:04:49;;;;;;;8.38;3.03;;;;;;;2.56;89.21;99054.88;5034033;28;20025;-72
2023/03/15 05:07:15;;;;;;;17.38;3.42;;;;;;;2.46;88.78;99038.84;5034405;28;20048;-72
2023/03/15 05:09:40;;;;;;;15.45;4.40;;;;;;;2.56;88.65;99060.03;5033689;28;20028;-72
2023/03/15 05:12:06;;;;;;;9.13;2.95;;;;;;;2.43;88.87;99056.06;5034371;28;20080;-72
2023/03/15 05:14:32;;;;;;;13.68;3.50;;;;;;;2.24;89.12;99047.94;5033779;28;20059;-72
2023/03/15 05:16:58;;;;;;;22.27;4.18;;;;;;;2.37;89.13;99072.47;5033771;28;20072;-72
2023/03/15 05:19:24;;;;;;;13.40;3.35;;;;;;;2.31;88.80;99061.47;5034196;28;20042;-72
2023/03/15 05:21:50;;;;;;;12.75;3.13;;;;;;;2.30;88.94;99058.06;5033381;28;20529;-73
2023/03/15 05:24:15;;;;;;;12.18;3.25;;;;;;;2.50;89.12;99089.28;5032879;28;20116;-72
2023/03/15 05:26:40;;;;;;;15.85;3.47;;;;;;;2.37;88.90;99071.63;5033136;28;20021;-72
2023/03/15 05:29:06;;;;;;;12.05;4.60;;;;;;;2.50;89.09;99089.28;5033774;28;20576;-73
2023/03/15 05:31:35;;;;;;;14.15;4.45;;;;;;;2.45;89.01;99073.13;5033375;28;20108;-72
2023/03/15 05:34:03;;;;;;;16.15;5.22;;;;;;;2.52;88.46;99072.97;5033509;28;20118;-72
2023/03/15 05:36:29;;;;;;;23.40;7.25;;;;;;;2.67;88.14;99090.63;5033215;28;20028;-73
2023/03/15 05:38:54;;;;;;;20.73;6.65;;;;;;;2.49;87.79;99074.75;5033221;28;20086;-72
2023/03/15 05:41:20;;;;;;;15.25;6.13;;;;;;;2.68;87.86;99112.88;5033548;28;20041;-72
2023/03/15 05:43:45;;;;;;;18.27;6.60;;;;;;;2.34;88.02;99081.97;5033342;28;20472;-72
2023/03/15 05:46:11;;;;;;;16.13;4.43;;;;;;;2.56;88.21;99123.44;5033535;28;20075;-72
2023/03/15 05:48:36;;;;;;;15.75;3.80;;;;;;;2.52;87.97;99107.25;5033458;28;20503;-73
2023/03/15 05:51:01;;;;;;;11.85;3.53;;;;;;;2.64;87.98;99121.56;5033188;28;20564;-72
2023/03/15 05:53:27;;;;;;;11.77;3.47;;;;;;;2.78;87.66;99137.50;5033072;28;20037;-73
2023/03/15 05:55:52;;;;;;;27.15;15.68;;;;;;;2.69;87.77;99115.41;5033015;28;20028;-72
2023/03/15 05:58:17;;;;;;;20.23;9.23;;;;;;;2.78;87.07;99123.78;5032987;28;20056;-72
2023/03/15 06:00:42;;;;;;;21.70;9.05;;;;;;;2.96;87.24;99138.81;5032775;28;20026;-72
2023/03/15 06:03:08;;;;;;;12.30;5.57;;;;;;;2.98;86.73;99144.75;5031733;28;20079;-72
2023/03/15 06:05:33;;;;;;;18.60;5.88;;;;;;;3.02;86.63;99136.06;5032677;28;20030;-72
2023/03/15 06:07:58;;;;;;;98.32;53.42;;;;;;;2.99;86.41;99124.16;5032996;28;20471;-72
2023/03/15 06:10:24;;;;;;;26.60;10.90;;;;;;;3.40;85.81;99170.31;5032740;28;20029;-72
2023/03/15 06:12:50;;;;;;;15.48;3.95;;;;;;;3.45;84.68;99148.72;5032647;28;20125;-72
2023/03/15 06:15:16;;;;;;;28.27;19.80;;;;;;;3.67;83.71;99167.03;5032636;28;20428;-72
2023/03/15 06:17:41;;;;;;;19.15;7.95;;;;;;;3.76;83.58;99163.38;5032628;28;20041;-72
2023/03/15 06:20:07;;;;;;;15.63;8.43;;;;;;;3.77;83.32;99153.91;5032477;28;20044;-72
2023/03/15 06:22:32;;;;;;;14.50;5.13;;;;;;;4.03;82.69;99178.97;5032290;28;20087;-72
2023/03/15 06:24:58;;;;;;;18.02;6.70;;;;;;;4.12;82.38;99173.53;5032995;28;20029;-72
2023/03/15 06:27:23;;;;;;;13.25;7.22;;;;;;;4.16;81.47;99173.41;5032495;28;20030;-72
2023/03/15 06:29:49;;;;;;;13.52;4.07;;;;;;;4.14;81.41;99164.06;5032371;28;20029;-72
2023/03/15 06:32:14;;;;;;;9.88;2.95;;;;;;;4.34;80.83;99192.69;5032580;28;20263;-72
2023/03/15 06:34:40;;;;;;;15.70;3.33;;;;;;;4.45;80.71;99198.38;5032105;28;20029;-72
2023/03/15 06:37:05;;;;;;;10.50;2.80;;;;;;;4.79;80.31;99206.84;5032105;28;20022;-73
2023/03/15 06:39:33;;;;;;;11.40;3.05;;;;;;;5.05;79.16;99206.03;5032135;28;20032;-72
2023/03/15 06:42:01;;;;;;;19.10;7.45;;;;;;;4.99;77.83;99184.69;5032496;28;20033;-72
2023/03/15 06:44:26;;;;;;;10.75;4.60;;;;;;;5.13;78.05;99214.41;5032635;28;20108;-72
2023/03/15 06:46:51;;;;;;;15.38;4.63;;;;;;;5.09;77.69;99199.91;5032071;28;20176;-72
2023/03/15 06:49:17;;;;;;;13.82;4.43;;;;;;;5.30;77.23;99212.13;5032248;28;20113;-72
2023/03/15 06:51:44;;;;;;;18.52;4.20;;;;;;;5.43;76.63;99230.66;5032144;28;20036;-72
2023/03/15 06:54:09;;;;;;;15.93;4.45;;;;;;;5.43;76.51;99218.56;5032388;28;20026;-72
2023/03/15 06:56:36;;;;;;;14.23;4.40;;;;;;;5.45;76.93;99201.31;5032109;28;20025;-72
2023/03/15 06:59:02;;;;;;;12.75;3.05;;;;;;;5.54;75.30;99212.22;5032166;28;20040;-72
2023/03/15 07:01:27;;;;;;;11.45;2.88;;;;;;;5.82;75.23;99246.59;5032318;28;20037;-72
2023/03/15 07:03:52;;;;;;;10.63;3.63;;;;;;;5.95;74.48;99232.38;5031692;28;20021;-72
2023/03/15 07:06:18;;;;;;;15.90;3.78;;;;;;;5.86;73.75;99232.66;5031907;28;20341;-72
2023/03/15 07:08:43;;;;;;;13.38;3.45;;;;;;;6.22;74.02;99256.41;5032210;28;20041;-72
2023/03/15 07:11:08;;;;;;;8.30;3.00;;;;;;;6.41;73.22;99241.09;5032041;28;20021;-72
2023/03/15 07:13:33;;;;;;;7.65;2.60;;;;;;;6.90;72.26;99267.75;5031784;28;20026;-72
2023/03/15 07:15:59;;;;;;;15.48;3.75;;;;;;;7.39;70.13;99252.91;5031395;28;20073;-72
2023/03/15 07:18:24;;;;;;;10.55;3.72;;;;;;;7.94;69.21;99265.34;5031887;28;20029;-72
2023/03/15 07:20:57;;;;;;;13.90;4.50;;;;;;;8.27;67.63;99239.72;5031410;28;20547;-72
2023/03/15 07:23:22;;;;;;;12.20;3.88;;;;;;;8.82;66.45;99260.66;5031987;28;20029;-72
2023/03/15 07:25:48;;;;;;;6.13;3.42;;;;;;;10.13;63.80;99240.44;5031669;28;20036;-72
2023/03/15 07:28:13;;;;;;;11.27;4.13;;;;;;;11.11;60.46;99258.69;5031828;28;20021;-72
2023/03/15 07:30:38;;;;;;;15.48;4.15;;;;;;;11.59;59.55;99269.09;5031458;28;20033;-73
2023/03/15 07:33:04;;;;;;;10.10;3.53;;;;;;;12.03;58.92;99270.91;5031689;28;20023;-72
2023/03/15 07:35:29;;;;;;;10.55;3.65;;;;;;;12.81;56.92;99274.03;5030722;28;20030;-72
2023/03/15 07:37:54;;;;;;;8.23;3.88;;;;;;;13.95;53.46;99279.81;5030299;28;20488;-72
2023/03/15 07:40:20;;;;;;;10.55;4.53;;;;;;;14.98;51.07;99259.69;5031391;28;20112;-73
2023/03/15 07:42:45;;;;;;;12.85;4.00;;;;;;;16.18;49.31;99278.03;5034046;28;20099;-73
2023/03/15 07:45:10;;;;;;;10.05;4.28;;;;;;;16.13;47.95;99281.00;5031987;28;20037;-73
2023/03/15 07:47:36;;;;;;;11.55;4.07;;;;;;;16.25;48.04;99258.22;5031690;28;20028;-73
2023/03/15 07:50:02;;;;;;;11.07;4.18;;;;;;;16.69;46.78;99278.47;5037713;28;20631;-73
2023/03/15 07:52:28;;;;;;;11.82;4.35;;;;;;;16.70;45.41;99280.13;5047487;28;20473;-72
2023/03/15 07:54:53;;;;;;;13.73;5.80;;;;;;;16.82;45.80;99290.69;5050085;28;20079;-73
2023/03/15 07:57:18;;;;;;;7.95;3.60;;;;;;;16.12;45.54;99286.38;5053390;28;20498;-73
2023/03/15 07:59:44;;;;;;;13.27;4.00;;;;;;;15.11;47.07;99296.38;5054621;28;20037;-73
2023/03/15 08:02:13;;;;;;;11.43;4.45;;;;;;;13.70;49.37;99285.81;5055035;28;20025;-72
2023/03/15 08:04:39;;;;;;;9.90;4.22;;;;;;;11.83;52.23;99272.06;5054643;28;20040;-72
2023/03/15 08:07:04;;;;;;;13.00;4.18;;;;;;;11.09;54.96;99293.59;5054972;28;20047;-73
2023/03/15 08:09:31;;;;;;;10.63;3.20;;;;;;;10.79;56.03;99291.72;5055172;28;20476;-72
2023/03/15 08:11:57;;;;;;;11.05;4.20;;;;;;;10.32;56.82;99296.75;5054831;28;20100;-72
2023/03/15 08:14:23;;;;;;;9.25;3.20;;;;;;;10.30;57.66;99309.88;5055118;28;20537;-73
2023/03/15 08:16:49;;;;;;;10.27;3.17;;;;;;;9.95;57.93;99296.84;5054548;28;20095;-72
2023/03/15 08:19:15;;;;;;;8.27;3.28;;;;;;;9.79;58.48;99306.31;5054734;28;20057;-73
2023/03/15 08:21:44;;;;;;;10.13;3.63;;;;;;;9.51;58.94;99299.00;5054418;28;20036;-73
2023/03/15 08:24:12;;;;;;;13.65;3.25;;;;;;;9.43;59.53;99314.94;5054906;28;20430;-73
2023/03/15 08:26:37;;;;;;;12.57;3.95;;;;;;;9.21;60.14;99322.91;5054660;28;20098;-73
2023/03/15 08:29:03;;;;;;;9.70;3.13;;;;;;;8.87;60.74;99328.81;5055008;28;20029;-73
2023/03/15 08:31:28;;;;;;;11.73;3.53;;;;;;;8.07;61.58;99305.44;5054611;28;20040;-73
2023/03/15 08:33:54;;;;;;;11.07;2.80;;;;;;;7.69;64.36;99328.56;5054296;28;20028;-72
2023/03/15 08:36:19;;;;;;;10.55;3.58;;;;;;;7.37;64.25;99306.50;5054938;28;20051;-73
2023/03/15 08:38:45;;;;;;;12.25;3.20;;;;;;;7.33;65.43;99335.19;5054388;28;20493;-72
2023/03/15 08:41:10;;;;;;;12.98;3.72;;;;;;;7.25;65.91;99338.09;5054567;28;20115;-72
2023/03/15 08:43:35;;;;;;;12.00;2.63;;;;;;;7.15;65.62;99322.03;5054443;28;20095;-72
2023/03/15 08:46:00;;;;;;;12.95;3.53;;;;;;;7.10;65.95;99354.19;5054126;28;20029;-72
2023/03/15 08:48:26;;;;;;;12.32;3.22;;;;;;;6.94;66.48;99326.28;5054275;28;20033;-72
2023/03/15 08:50:51;;;;;;;13.00;3.65;;;;;;;7.08;67.66;99351.69;5054133;28;20123;-72
2023/03/15 08:53:16;;;;;;;14.38;3.72;;;;;;;7.20;67.39;99348.59;5054422;28;20023;-72
2023/03/15 08:55:42;;;;;;;12.77;3.30;;;;;;;7.05;66.71;99348.34;5054069;28;20031;-73
2023/03/15 08:58:07;;;;;;;16.00;5.53;;;;;;;6.87;66.81;99334.31;5054270;28;20021;-73
2023/03/15 09:00:33;;;;;;;18.60;5.68;;;;;;;6.80;66.82;99333.72;5053931;28;20112;-72
2023/03/15 09:02:58;;;;;;;14.27;4.55;;;;;;;6.83;66.78;99328.44;5053745;28;20029;-72
2023/03/15 09:05:24;;;;;;;14.43;4.50;;;;;;;7.29;65.90;99336.22;5053954;28;20029;-72
2023/03/15 09:07:51;;;;;;;10.07;4.15;;;;;;;7.08;66.81;99356.00;5053842;28;20025;-72
2023/03/15 09:10:18;;;;;;;15.05;3.40;;;;;;;6.73;67.45;99343.44;5054031;28;20033;-72
2023/03/15 09:12:45;;;;;;;7.38;3.15;;;;;;;7.03;66.65;99347.56;5053675;28;20028;-72
2023/03/15 09:15:11;;;;;;;12.57;3.45;;;;;;;7.07;66.90;99351.72;5053491;28;20029;-72
2023/03/15 09:17:38;;;;;;;16.02;3.25;;;;;;;7.01;68.88;99357.97;5053638;28;20029;-72
2023/03/15 09:20:11;;;;;;;14.13;3.67;;;;;;;7.18;67.64;99350.44;5053500;28;20033;-73
2023/03/15 09:22:36;;;;;;;10.93;3.38;;;;;;;7.55;65.34;99371.50;5053901;28;20021;-72
2023/03/15 09:25:03;;;;;;;8.57;2.67;;;;;;;6.94;67.00;99365.13;5053624;28;20427;-72
2023/03/15 09:27:30;;;;;;;13.18;3.42;;;;;;;6.85;68.05;99368.03;5053723;28;20028;-72
2023/03/15 09:29:55;;;;;;;14.82;3.35;;;;;;;7.33;65.59;99374.91;5053309;28;20036;-72
2023/03/15 09:32:21;;;;;;;16.27;4.05;;;;;;;6.85;66.76;99362.03;5053413;28;20021;-72
2023/03/15 09:34:46;;;;;;;21.58;10.52;;;;;;;6.49;68.79;99345.16;5052148;28;20033;-72
2023/03/15 09:37:12;;;;;;;12.02;3.70;;;;;;;7.02;68.20;99369.19;5053477;28;20049;-72
2023/03/15 09:39:37;;;;;;;13.20;4.63;;;;;;;7.24;66.46;99372.66;5053316;28;20396;-72
2023/03/15 09:42:15;;;;;;;15.95;3.90;;;;;;;6.69;66.44;99352.19;5053677;28;20055;-72
2023/03/15 09:44:50;;;;;;;12.27;3.60;;;;;;;6.60;66.49;99377.56;5053168;28;20469;-72
2023/03/15 09:47:34;;;;;;;11.43;3.28;;;;;;;6.94;65.34;99374.63;5053331;28;20108;-72
2023/03/15 09:50:10;;;;;;;11.27;3.30;;;;;;;7.14;64.92;99382.50;5051761;28;20033;-72
2023/03/15 09:52:43;;;;;;;14.68;3.88;;;;;;;6.67;65.10;99385.06;5053168;28;20017;-72
2023/03/15 09:55:19;;;;;;;11.70;2.88;;;;;;;6.60;66.51;99381.00;5052967;28;20110;-72
2023/03/15 09:57:54;;;;;;;15.48;5.07;;;;;;;6.81;66.02;99365.63;5052928;28;20112;-72
2023/03/15 10:00:25;;;;;;;15.82;4.38;;;;;;;6.62;65.38;99379.22;5052785;28;20028;-72
2023/03/15 10:02:58;;;;;;;8.25;3.28;;;;;;;6.46;65.87;99368.53;5052607;28;20035;-72
2023/03/15 10:05:33;;;;;;;15.15;5.20;;;;;;;6.71;64.88;99350.41;5052830;28;20419;-72
2023/03/15 10:07:58;;;;;;;10.38;3.78;;;;;;;6.56;65.86;99371.66;5053009;28;20484;-72
2023/03/15 10:10:32;;;;;;;14.45;3.17;;;;;;;6.50;66.76;99364.13;5052616;28;20068;-72
2023/03/15 10:13:24;;;;;;;6.88;2.80;;;;;;;6.91;63.52;99372.13;5052565;28;20507;-72
2023/03/15 10:16:10;;;;;;;;;;;;;;;6.70;63.47;99377.22;5052665;28;20132;-72
2023/03/15 10:18:53;;;;;;;7.53;2.42;;;;;;;6.17;63.35;99360.94;5052392;28;19913;-72
2023/03/15 10:21:40;;;;;;;9.25;2.88;;;;;;;6.63;63.95;99380.91;5052461;28;20545;-72
2023/03/15 10:24:16;;;;;;;13.27;4.03;;;;;;;7.03;64.08;99386.41;5052352;28;20021;-72
2023/03/15 10:26:43;;;;;;;14.77;4.05;;;;;;;6.99;64.20;99388.25;5052445;28;20479;-72
2023/03/15 10:29:15;;;;;;;14.80;5.82;;;;;;;6.73;63.14;99363.28;5052315;28;20083;-72
2023/03/15 10:31:45;;;;;;;10.30;4.57;;;;;;;6.69;64.02;99341.00;5052471;28;20033;-72
2023/03/15 10:34:11;;;;;;;15.38;4.20;;;;;;;7.30;61.81;99359.47;5052387;28;20111;-72
2023/03/15 10:36:43;;;;;;;9.07;4.50;;;;;;;7.60;61.33;99375.59;5052661;28;20500;-72
2023/03/15 10:39:10;;;;;;;10.52;3.95;;;;;;;7.12;61.84;99375.69;5052048;28;20100;-72
2023/03/15 10:41:39;;;;;;;7.60;2.92;;;;;;;6.81;61.65;99369.03;5052426;28;20059;-72
2023/03/15 10:44:30;;;;;;;10.10;4.25;;;;;;;7.27;61.16;99376.88;5051948;28;20485;-72
2023/03/15 10:47:11;;;;;;;10.68;3.83;;;;;;;7.75;61.11;99372.41;5051802;28;20065;-72
2023/03/15 10:49:39;;;;;;;11.50;4.53;;;;;;;7.73;61.23;99386.34;5052141;28;20179;-72
2023/03/15 10:52:05;;;;;;;10.07;2.80;;;;;;;7.49;61.78;99388.13;5051971;28;20084;-72
2023/03/15 10:54:33;;;;;;;16.85;7.60;;;;;;;7.79;61.96;99396.44;5052023;28;20508;-72
2023/03/15 10:57:02;;;;;;;9.90;3.28;;;;;;;7.80;60.08;99384.34;5051782;28;20025;-72
2023/03/15 10:59:31;;;;;;;8.45;2.55;;;;;;;7.50;60.95;99385.50;5051920;28;20140;-72
2023/03/15 11:02:11;;;;;;;7.68;3.63;;;;;;;7.55;61.65;99411.22;5051610;28;20096;-72
2023/03/15 11:04:48;;;;;;;10.75;3.50;;;;;;;7.84;60.58;99417.03;5052008;28;20087;-72
2023/03/15 11:07:13;;;;;;;8.77;2.53;;;;;;;7.80;59.58;99390.38;5051719;28;20063;-72
2023/03/15 11:09:51;;;;;;;4.72;2.10;;;;;;;7.90;57.20;99402.06;5051804;28;20481;-72
2023/03/15 11:12:23;;;;;;;9.20;3.90;;;;;;;7.60;57.14;99383.38;5052240;28;20025;-72
2023/03/15 11:14:56;;;;;;;8.85;3.83;;;;;;;7.72;57.85;99400.22;5051602;28;20096;-72
2023/03/15 11:17:29;;;;;;;11.52;3.28;;;;;;;7.58;57.50;99385.16;5052170;28;20120;-72
2023/03/15 11:19:58;;;;;;;7.85;3.10;;;;;;;7.72;58.12;99382.06;5051718;28;20025;-72
2023/03/15 11:22:24;;;;;;;17.00;3.85;;;;;;;8.02;58.49;99376.56;5051616;28;20082;-72
2023/03/15 11:24:51;;;;;;;5.63;3.00;;;;;;;8.35;56.92;99395.09;5055393;28;20104;-72
2023/03/15 11:27:20;;;;;;;9.93;4.22;;;;;;;8.28;56.87;99401.44;5056019;28;20036;-73
2023/03/15 11:29:57;;;;;;;12.50;6.43;;;;;;;8.17;56.61;99407.03;5054616;28;20396;-72
2023/03/15 11:32:25;;;;;;;14.38;6.07;;;;;;;8.14;57.77;99391.63;5055852;28;20036;-72
2023/03/15 11:35:04;;;;;;;15.27;6.18;;;;;;;8.02;58.38;99373.97;5055450;28;20040;-72
2023/03/15 11:37:48;;;;;;;10.18;4.25;;;;;;;8.22;58.79;99412.91;5055792;28;20029;-72